Scroll down
FLIGHT INFORMATION
Boeing

BOE1102

At Arrival Gate

KPHX
 KATL
DATE: 2018-11-03
GATE:  -
GATE DEPARTURE: 00:06
TAKEOFF: 00:15
DATE: 2018-11-03
GATE: F1
LANDING: 03:13
GATE ARRIVAL: 03:28
FLIGHT DATA
Crew: 
Speed: 
512 kts
Altitude: 
39,030 ft
Stage Length: 
1,376.4 nm
Block Time: 
3.4 hrs
Flight Time: 
3 hrs
Fuel Used: 
66,374 lb
Cleared Route: JUTAK WETAL RIICH PYPPE BARLL BROAK FTHLS JNIPR JSSUA MAXXO IRW MEM HUTCC KNSAW RUSSA RUTTH JKSON MADDX GLAVN STHRN HOGGG EAGYL SHURT FOGER HITTT YURII
TRACK DATA
50,000 ft 1,000 kts
AIRCRAFT INFO AND CUMULATIVE STATS
Aircraft Type: 
B748
Registration: 
SELCAL: 
MSN/LN: 
0 / 1
Operator: 
Total Flights: 
11
Total Block Time: 
35 hrs
Total Flight Time: 
32.1 hrs
Total Fuel Time: 
819,654 lb
DATALINK LOG | Newest first | Current as of: 2020-12-05 22:18:26
LABEL SEQUENCE CONTENT Dn/Up
QD284903:28 36.1▼ Dn
QC130003:13▼ Dn
2U4805KATL 030152Z 28007KT 10SM FEW250 07/03 A2994 RMK AO2 SLP140 T00720033▲ Up
2S4503KATL▼ Dn
GA4404GATE F1▲ Up
GR4107KATL▼ Dn
QB151500:15▼ Dn
QA064800:06 102.7▼ Dn
2U5726KPHX 022351Z 23006KT 10SM FEW250 27/01 A2995 RMK AO2 SLP128 T02670011 10278 20217 56018▲ Up
2U5726KATL 022352Z 31016G20KT 10SM SCT024 OVC035 09/03 A2991 RMK AO2 SLP127 BINOVC T00940033 10161 20094 53025▲ Up
2S5440KPHX KATL▼ Dn


AIRCRAFT HISTORY
FLIGHT DATE FLIGHT NO. ORIGIN DESTINATION CLEARED ROUTE BLOCK TIME FLIGHT TIME FUEL USED PILOT
2020-06-19BOE619KDEN EIDW KDEN NUGGS HIDEF SHOBO LUPTN MRENE EEONS WYNDM HCT OBH KP75G KG81K DLL TVC SILVU YYB BAREE ALLRY 5150N 5240N 5430N 5420N DOGAL BEXET OLAPO RONON ORVEN GIRAS KERAV KOGAX KUDOM DW814 DW815 DW816 NARMU LAPMO RW288.4 hrs8.3 hrs681 lbRandall Smith
2020-05-02BOE442KSAN KDEN KSAN MTBAL EED TBC SHNPS KDEN2.4 hrs2.1 hrs49,150 lbCharles Harris
2020-04-13BOE413KLAX KSAN KLAX SLI DANAH OCN CARIF MZB CIJHI RW270.9 hrs0.5 hrs12,647 lbKyle Weber
2019-09-30BOE30KSEA KLAX KSEA NEZUG SUMMA JINMO JOGEN JUNEJ JAGWA BURGL DOUIT CROWY MUPTT MDOTS GRIPR BIKNG RUNNN IRNMN SYMON BAYST JUUSE CLIFY DAHJR GADDO MERCE RW24R2.4 hrs2.2 hrs46,172 lbKyle Weber
2019-09-29BOE29KPDX KSEA KPDX COUGA KRIEG HAWKZ LIINE PIKEZ COFAY BREVE NETTZ KWEST VASHN KARFO RW16L0.9 hrs0.6 hrs14,760 lbKyle Weber
2019-05-02BOE1KBFI KPDX KBFI ZIGED ZIGED BUWZO HELNS KRATR HYKER LIQWD SSSUN SHYNE OMMSI RW28R0.7 hrs0.5 hrs14,753 lbRandall Smith
2018-12-09BOE7478KATL KBFI PICKT RONII HOYYT PENCL LEDRR JAACE BNA LAJUG TINGS DENNI PLESS STL IRK OVR ONL RAP BIL HLN MLP GEG TEMPL WITRO ODAHL GLASR JAKSN WOODI HETHR4.8 hrs4.6 hrs394,965 lbRandall Smith
2018-11-03BOE1102KPHX KATL JUTAK WETAL RIICH PYPPE BARLL BROAK FTHLS JNIPR JSSUA MAXXO IRW MEM HUTCC KNSAW RUSSA RUTTH JKSON MADDX GLAVN STHRN HOGGG EAGYL SHURT FOGER HITTT YURII3.4 hrs3 hrs66,374 lbKyle Rodgers
2018-10-02BOE5150CYYC KPHX 2.9 hrs2.6 hrs57,209 lbPete L.
2018-09-27BOE431KSFO CYYC 2.5 hrs2.2 hrs47,651 lbPete L.
2018-09-09BOE477KBOS KSFO 5.8 hrs5.6 hrs115,291 lbPete L.